createdAt,value
2018-02-03T00:00:26.159Z,89.00
2018-02-03T00:02:53.698Z,89.10
2018-02-03T00:05:21.240Z,88.80
2018-02-03T00:07:48.796Z,88.80
2018-02-03T00:10:16.506Z,88.10
2018-02-03T00:12:44.064Z,89.10
2018-02-03T00:15:11.648Z,88.60
2018-02-03T00:17:39.191Z,88.90
2018-02-03T00:20:06.736Z,89.20
2018-02-03T00:22:35.006Z,89.00
2018-02-03T00:25:02.538Z,90.00
2018-02-03T00:27:30.075Z,90.10
2018-02-03T00:29:58.491Z,90.10
2018-02-03T00:32:26.033Z,90.10
2018-02-03T00:34:53.566Z,90.00
2018-02-03T00:37:21.140Z,89.90
2018-02-03T00:39:48.672Z,89.90
2018-02-03T00:42:16.423Z,89.20
2018-02-03T00:44:44.683Z,89.60
2018-02-03T00:47:12.212Z,90.00
2018-02-03T00:49:39.751Z,89.90
2018-02-03T00:52:07.311Z,89.70
2018-02-03T00:54:34.855Z,89.70
2018-02-03T00:57:02.404Z,90.00
2018-02-03T00:59:30.008Z,90.20
2018-02-03T01:01:57.548Z,90.00
2018-02-03T01:04:25.849Z,89.50
2018-02-03T01:06:53.467Z,89.40
2018-02-03T01:09:21.015Z,88.80
2018-02-03T01:11:48.550Z,89.00
2018-02-03T01:14:17.239Z,90.10
2018-02-03T01:16:44.774Z,89.70
2018-02-03T01:19:12.311Z,89.40
2018-02-03T01:21:39.909Z,90.00
2018-02-03T01:24:08.567Z,90.50
2018-02-03T01:26:36.876Z,90.70
2018-02-03T01:29:04.989Z,90.70
2018-02-03T01:31:32.532Z,90.70
2018-02-03T01:34:00.080Z,90.40
2018-02-03T01:36:27.696Z,90.30
2018-02-03T01:38:55.231Z,90.30
2018-02-03T01:41:22.766Z,90.30
2018-02-03T01:43:50.323Z,90.10
2018-02-03T01:46:17.859Z,90.10
2018-02-03T01:48:45.398Z,89.90
2018-02-03T01:51:15.403Z,90.10
2018-02-03T01:53:42.942Z,90.10
2018-02-03T01:56:10.483Z,90.30
2018-02-03T01:58:38.403Z,90.40
2018-02-03T02:01:06.701Z,90.20
2018-02-03T02:03:34.244Z,90.20
2018-02-03T02:06:01.815Z,90.20
2018-02-03T02:08:29.361Z,90.10
2018-02-03T02:10:56.896Z,90.10
2018-02-03T02:13:25.655Z,90.40
2018-02-03T02:15:53.187Z,90.40
2018-02-03T02:18:20.728Z,90.50
2018-02-03T02:20:48.299Z,90.30
2018-02-03T02:23:16.419Z,90.40
2018-02-03T02:25:44.191Z,90.50
2018-02-03T02:28:11.804Z,90.40
2018-02-03T02:30:39.335Z,90.50
2018-02-03T02:33:06.944Z,90.60
2018-02-03T02:35:35.409Z,90.80
2018-02-03T02:38:02.952Z,90.90
2018-02-03T02:40:30.495Z,91.00
2018-02-03T02:42:58.054Z,91.10
2018-02-03T02:45:26.356Z,91.40
2018-02-03T02:47:53.887Z,91.40
2018-02-03T02:50:22.228Z,91.10
2018-02-03T02:52:49.783Z,91.10
2018-02-03T02:55:17.326Z,91.40
2018-02-03T02:57:45.215Z,91.60
2018-02-03T03:00:12.759Z,91.80
2018-02-03T03:02:40.302Z,91.60
2018-02-03T03:05:07.919Z,91.50
2018-02-03T03:07:35.454Z,91.30
2018-02-03T03:10:02.989Z,91.50
2018-02-03T03:12:30.555Z,91.10
2018-02-03T03:14:58.099Z,91.10
2018-02-03T03:17:25.631Z,91.10
2018-02-03T03:19:54.546Z,91.30
2018-02-03T03:22:22.083Z,91.30
2018-02-03T03:24:49.626Z,91.30
2018-02-03T03:27:17.342Z,91.90
2018-02-03T03:29:44.884Z,91.70
2018-02-03T03:32:12.424Z,91.60
2018-02-03T03:34:40.747Z,91.00
2018-02-03T03:37:08.283Z,91.00
2018-02-03T03:39:35.822Z,91.10
2018-02-03T03:42:03.751Z,90.90
2018-02-03T03:44:31.295Z,90.90
2018-02-03T03:46:58.835Z,90.90
2018-02-03T03:49:26.403Z,90.80
2018-02-03T03:51:53.940Z,90.70
2018-02-03T03:54:22.239Z,90.80
2018-02-03T03:56:49.808Z,90.80
2018-02-03T03:59:17.348Z,90.70
2018-02-03T04:01:44.887Z,90.70
2018-02-03T04:04:14.659Z,90.40
2018-02-03T04:06:42.220Z,90.50
2018-02-03T04:09:09.754Z,90.60
2018-02-03T04:11:37.317Z,90.80
2018-02-03T04:14:04.850Z,90.90
2018-02-03T04:16:33.144Z,91.00
2018-02-03T04:19:00.812Z,91.00
2018-02-03T04:21:29.117Z,90.90
2018-02-03T04:23:56.655Z,91.00
2018-02-03T04:26:24.850Z,90.60
2018-02-03T04:28:52.763Z,90.50
2018-02-03T04:31:21.084Z,90.70
2018-02-03T04:33:48.650Z,90.70
2018-02-03T04:36:17.210Z,90.70
2018-02-03T04:38:44.743Z,90.70
2018-02-03T04:41:13.995Z,90.60
2018-02-03T04:43:41.532Z,90.60
2018-02-03T04:46:09.059Z,90.70
2018-02-03T04:48:37.571Z,91.00
2018-02-03T04:51:05.108Z,91.00
2018-02-03T04:53:32.651Z,90.70
2018-02-03T04:56:00.218Z,90.30
2018-02-03T04:58:27.751Z,90.30
2018-02-03T05:00:55.285Z,90.40
2018-02-03T05:03:22.855Z,90.50
2018-02-03T05:05:51.163Z,90.90
2018-02-03T05:08:18.705Z,90.90
2018-02-03T05:10:46.804Z,90.80
2018-02-03T05:13:15.435Z,90.70
2018-02-03T05:20:09.156Z,91.10
2018-02-03T05:22:36.683Z,91.10
2018-02-03T05:25:04.221Z,91.50
2018-02-03T05:27:32.359Z,91.80
2018-02-03T05:30:00.159Z,92.00
2018-02-03T05:32:27.698Z,92.10
2018-02-03T05:34:55.272Z,92.20
2018-02-03T05:37:22.812Z,92.30
2018-02-03T05:39:50.396Z,92.40
2018-02-03T05:42:18.767Z,92.60
2018-02-03T05:44:48.843Z,92.90
2018-02-03T05:47:16.431Z,92.60
2018-02-03T05:49:44.012Z,92.70
2018-02-03T05:52:11.563Z,92.80
2018-02-03T05:54:39.099Z,93.20
2018-02-03T05:57:06.659Z,93.20
2018-02-03T05:59:34.203Z,93.30
2018-02-03T06:02:01.739Z,93.40
2018-02-03T06:04:29.296Z,93.30
2018-02-03T06:06:56.840Z,93.30
2018-02-03T06:09:25.134Z,93.30
2018-02-03T06:11:53.249Z,93.30
2018-02-03T06:14:20.783Z,93.20
2018-02-03T06:16:48.319Z,93.30
2018-02-03T06:19:17.351Z,93.40
2018-02-03T06:21:44.888Z,93.60
2018-02-03T06:24:12.527Z,93.50
2018-02-03T06:26:40.116Z,93.60
2018-02-03T06:29:07.659Z,93.60
2018-02-03T06:31:35.466Z,93.60
2018-02-03T06:34:03.099Z,93.50
2018-02-03T06:36:30.669Z,93.70
2018-02-03T06:38:58.266Z,93.80
2018-02-03T06:41:25.872Z,93.70
2018-02-03T06:43:53.502Z,93.70
2018-02-03T06:46:21.883Z,93.90
2018-02-03T06:48:50.289Z,93.90
2018-02-03T06:51:17.867Z,93.90
2018-02-03T06:53:45.425Z,93.80
2018-02-03T06:56:14.940Z,93.80
2018-02-03T06:58:42.480Z,94.00
2018-02-03T07:01:10.153Z,93.90
2018-02-03T07:03:37.732Z,93.80
2018-02-03T07:06:05.263Z,93.60
2018-02-03T07:08:32.811Z,93.60
2018-02-03T07:11:00.380Z,93.70
2018-02-03T07:13:27.915Z,93.80
2018-02-03T07:15:55.455Z,93.90
2018-02-03T07:18:23.403Z,94.10
2018-02-03T07:20:50.936Z,94.00
2018-02-03T07:23:18.479Z,94.00
2018-02-03T07:25:46.044Z,93.80
2018-02-03T07:28:14.575Z,93.80
2018-02-03T07:30:42.111Z,93.70
2018-02-03T07:33:09.895Z,93.80
2018-02-03T07:35:37.434Z,93.80
2018-02-03T07:38:05.735Z,93.70
2018-02-03T07:40:33.327Z,93.70
2018-02-03T07:43:01.630Z,93.90
2018-02-03T07:45:29.167Z,93.90
2018-02-03T07:47:57.487Z,93.50
2018-02-03T07:50:25.787Z,93.50
2018-02-03T07:52:53.325Z,93.40
2018-02-03T07:55:20.882Z,93.50
2018-02-03T07:57:48.415Z,93.90
2018-02-03T08:00:16.549Z,94.20
2018-02-03T08:02:44.444Z,94.50
2018-02-03T08:05:13.793Z,95.60
2018-02-03T08:07:41.594Z,95.60
2018-02-03T08:10:09.212Z,96.20
2018-02-03T08:12:36.892Z,96.50
2018-02-03T08:15:04.432Z,96.60
2018-02-03T08:17:32.896Z,96.70
2018-02-03T08:20:00.452Z,97.00
2018-02-03T08:22:28.048Z,97.40
2018-02-03T08:24:55.716Z,97.20
2018-02-03T08:27:23.271Z,97.20
2018-02-03T08:29:50.802Z,97.30
2018-02-03T08:32:18.365Z,97.00
2018-02-03T08:34:46.410Z,97.20
2018-02-03T08:37:16.398Z,97.50
2018-02-03T08:39:43.963Z,97.50
2018-02-03T08:42:11.500Z,97.60
2018-02-03T08:44:39.032Z,97.40
2018-02-03T08:47:07.516Z,97.40
2018-02-03T08:49:35.047Z,97.10
2018-02-03T08:52:03.342Z,96.70
2018-02-03T08:54:30.899Z,96.60
2018-02-03T08:56:58.430Z,96.40
2018-02-03T08:59:25.963Z,96.20
2018-02-03T09:01:53.528Z,96.60
2018-02-03T09:04:21.055Z,97.00
2018-02-03T09:06:48.599Z,97.20
2018-02-03T09:09:17.523Z,97.20
2018-02-03T09:11:56.811Z,97.20
2018-02-03T09:14:25.141Z,96.70
2018-02-03T09:16:52.666Z,96.70
2018-02-03T09:19:20.355Z,97.00
2018-02-03T09:21:47.943Z,96.60
2018-02-03T09:24:15.511Z,96.40
2018-02-03T09:26:43.361Z,96.50
2018-02-03T09:29:11.423Z,96.30
2018-02-03T09:31:38.953Z,96.30
2018-02-03T09:34:06.504Z,95.90
2018-02-03T09:36:34.315Z,95.70
2018-02-03T09:39:01.916Z,94.80
2018-02-03T09:41:30.312Z,94.10
2018-02-03T09:43:57.922Z,94.10
2018-02-03T09:46:25.463Z,94.20
2018-02-03T09:48:52.991Z,94.20
2018-02-03T09:51:20.863Z,94.80
2018-02-03T09:53:48.424Z,94.80
2018-02-03T09:56:17.240Z,95.40
2018-02-03T09:58:44.838Z,95.40
2018-02-03T10:01:12.468Z,95.60
2018-02-03T10:03:40.208Z,96.00
2018-02-03T10:06:07.824Z,96.00
2018-02-03T10:08:36.416Z,95.80
2018-02-03T10:11:04.751Z,95.80
2018-02-03T10:13:32.823Z,95.80
2018-02-03T10:16:00.360Z,95.20
2018-02-03T10:18:27.896Z,95.40
2018-02-03T10:20:56.344Z,95.00
2018-02-03T10:23:23.879Z,95.00
2018-02-03T10:25:51.474Z,95.10
2018-02-03T10:28:19.059Z,95.40
2018-02-03T10:30:46.618Z,95.20
2018-02-03T10:33:16.255Z,95.40
2018-02-03T10:35:44.255Z,95.40
2018-02-03T10:38:12.243Z,95.30
2018-02-03T10:40:39.783Z,94.90
2018-02-03T10:43:07.342Z,94.30
2018-02-03T10:45:34.908Z,93.90
2018-02-03T10:48:02.613Z,93.90
2018-02-03T10:50:30.187Z,93.50
2018-02-03T10:52:57.725Z,93.60
2018-02-03T10:55:26.033Z,93.50
2018-02-03T10:57:53.890Z,93.50
2018-02-03T11:00:21.456Z,93.30
2018-02-03T11:02:49.021Z,92.90
2018-02-03T11:05:16.676Z,92.40
2018-02-03T11:07:44.288Z,92.40
2018-02-03T11:10:12.966Z,92.60
2018-02-03T11:12:40.534Z,92.60
2018-02-03T11:15:08.076Z,93.20
2018-02-03T11:17:35.620Z,93.20
2018-02-03T11:20:03.659Z,93.40
2018-02-03T11:22:31.203Z,93.30
2018-02-03T11:24:58.771Z,93.50
2018-02-03T11:27:27.127Z,93.70
2018-02-03T11:29:54.676Z,93.70
2018-02-03T11:32:22.288Z,93.50
2018-02-03T11:34:49.851Z,93.90
2018-02-03T11:37:17.392Z,93.90
2018-02-03T11:39:45.475Z,93.80
2018-02-03T11:42:15.819Z,93.30
2018-02-03T11:44:43.359Z,93.20
2018-02-03T11:47:10.896Z,93.60
2018-02-03T11:49:39.224Z,92.60
2018-02-03T11:52:06.759Z,92.50
2018-02-03T11:54:34.298Z,92.70
2018-02-03T11:57:02.727Z,91.70
2018-02-03T11:59:30.263Z,91.70
2018-02-03T12:01:57.795Z,91.30
2018-02-03T12:04:25.932Z,90.70
2018-02-03T12:06:53.521Z,90.60
2018-02-03T12:09:21.055Z,90.90
2018-02-03T12:11:48.639Z,90.80
2018-02-03T12:14:17.268Z,91.50
2018-02-03T12:16:44.802Z,91.50
2018-02-03T12:19:14.052Z,91.20
2018-02-03T12:21:41.657Z,91.50
2018-02-03T12:24:09.196Z,91.40
2018-02-03T12:26:37.239Z,90.30
2018-02-03T12:29:04.772Z,89.70
2018-02-03T12:31:32.371Z,90.60
2018-02-03T12:33:59.937Z,90.40
2018-02-03T12:36:27.467Z,90.30
2018-02-03T12:38:55.023Z,91.20
2018-02-03T12:41:22.735Z,91.10
2018-02-03T12:43:50.327Z,91.60
2018-02-03T12:46:17.871Z,90.90
2018-02-03T12:48:46.651Z,89.50
2018-02-03T12:51:15.503Z,89.50
2018-02-03T12:53:43.044Z,90.00
2018-02-03T12:56:10.612Z,91.00
2018-02-03T12:58:38.156Z,90.00
2018-02-03T13:01:05.686Z,90.40
2018-02-03T13:03:33.259Z,90.70
2018-02-03T13:06:01.568Z,90.40
2018-02-03T13:08:29.122Z,90.40
2018-02-03T13:10:56.996Z,90.50
2018-02-03T13:13:24.531Z,90.60
2018-02-03T13:15:52.418Z,91.00
2018-02-03T13:18:20.909Z,91.10
2018-02-03T13:20:48.648Z,90.70
2018-02-03T13:23:16.404Z,90.50
2018-02-03T13:25:44.773Z,90.50
2018-02-03T13:28:13.994Z,90.80
2018-02-03T13:30:41.591Z,90.80
2018-02-03T13:33:09.207Z,91.30
2018-02-03T13:35:36.751Z,90.40
2018-02-03T13:38:05.060Z,91.40
2018-02-03T13:40:32.672Z,91.30
2018-02-03T13:43:00.767Z,91.60
2018-02-03T13:45:29.110Z,91.70
2018-02-03T13:47:56.671Z,91.70
2018-02-03T13:50:24.215Z,91.50
2018-02-03T13:52:51.759Z,91.40
2018-02-03T13:55:19.799Z,90.70
2018-02-03T13:57:48.252Z,88.30
2018-02-03T14:00:16.724Z,88.30
2018-02-03T14:02:44.307Z,87.60
2018-02-03T14:05:11.863Z,88.40
2018-02-03T14:07:39.414Z,88.40
2018-02-03T14:10:06.991Z,88.80
2018-02-03T14:12:34.528Z,88.80
2018-02-03T14:15:02.092Z,88.40
2018-02-03T14:17:30.160Z,88.10
2018-02-03T14:19:57.712Z,88.80
2018-02-03T14:22:25.282Z,87.80
2018-02-03T14:24:58.464Z,87.70
2018-02-03T14:27:26.035Z,86.40
2018-02-03T14:29:53.666Z,87.30
2018-02-03T14:32:21.276Z,87.70
2018-02-03T14:34:48.839Z,87.50
2018-02-03T14:37:16.706Z,89.40
2018-02-03T14:39:44.334Z,88.30
2018-02-03T14:42:11.967Z,87.40
2018-02-03T14:44:39.987Z,87.70
2018-02-03T14:47:07.543Z,88.80
2018-02-03T14:49:35.086Z,87.40
2018-02-03T14:52:02.625Z,86.60
2018-02-03T14:54:30.199Z,87.40
2018-02-03T14:56:57.742Z,87.50
2018-02-03T14:59:25.295Z,87.70
2018-02-03T15:01:53.146Z,88.80
2018-02-03T15:04:22.812Z,87.90
2018-02-03T15:06:50.376Z,87.00
2018-02-03T15:09:17.948Z,87.60
2018-02-03T15:11:45.518Z,87.40
2018-02-03T15:14:24.364Z,87.70
2018-02-03T15:19:35.140Z,87.60
2018-02-03T15:22:02.683Z,88.20
2018-02-03T15:24:31.257Z,88.40
2018-02-03T15:26:59.819Z,90.30
2018-02-03T15:29:27.366Z,90.50
2018-02-03T15:31:54.904Z,90.50
2018-02-03T15:34:22.471Z,90.70
2018-02-03T15:36:50.035Z,90.90
2018-02-03T15:39:17.577Z,91.10
2018-02-03T15:41:46.454Z,91.20
2018-02-03T15:44:16.290Z,91.90
2018-02-03T15:46:44.244Z,91.90
2018-02-03T15:49:11.803Z,92.30
2018-02-03T15:51:39.349Z,92.00
2018-02-03T15:54:07.654Z,92.10
2018-02-03T15:56:35.509Z,92.10
2018-02-03T15:59:03.057Z,92.20
2018-02-03T16:01:30.619Z,92.10
2018-02-03T16:03:58.516Z,92.20
2018-02-03T16:06:26.071Z,91.90
2018-02-03T16:08:53.611Z,92.20
2018-02-03T16:11:21.194Z,92.20
2018-02-03T16:13:48.758Z,92.40
2018-02-03T16:16:17.327Z,93.30
2018-02-03T16:18:44.939Z,93.30
2018-02-03T16:21:14.190Z,93.40
2018-02-03T16:23:41.939Z,93.40
2018-02-03T16:26:09.556Z,93.20
2018-02-03T16:28:37.091Z,93.40
2018-02-03T16:31:04.889Z,93.20
2018-02-03T16:33:32.551Z,92.90
2018-02-03T16:36:00.087Z,92.90
2018-02-03T16:38:27.628Z,93.00
2018-02-03T16:40:55.290Z,93.10
2018-02-03T16:43:22.827Z,93.50
2018-02-03T16:45:51.171Z,93.50
2018-02-03T16:48:19.739Z,93.50
2018-02-03T16:50:47.291Z,93.40
2018-02-03T16:53:17.202Z,93.40
2018-02-03T16:55:44.798Z,93.40
2018-02-03T16:58:12.351Z,93.30
2018-02-03T17:00:40.759Z,93.50
2018-02-03T17:03:09.084Z,93.20
2018-02-03T17:05:36.739Z,93.20
2018-02-03T17:08:04.374Z,93.30
2018-02-03T17:10:31.972Z,93.20
2018-02-03T17:12:59.512Z,93.30
2018-02-03T17:15:27.051Z,93.50
2018-02-03T17:17:54.618Z,93.30
2018-02-03T17:20:22.175Z,93.00
2018-02-03T17:22:49.829Z,92.90
2018-02-03T17:25:17.523Z,92.80
2018-02-03T17:27:45.299Z,92.80
2018-02-03T17:30:13.894Z,92.90
2018-02-03T17:32:42.013Z,92.90
2018-02-03T17:35:10.324Z,92.40
2018-02-03T17:37:43.491Z,92.40
2018-02-03T17:40:11.164Z,92.40
2018-02-03T17:42:38.775Z,91.80
2018-02-03T17:45:12.143Z,91.00
2018-02-03T17:47:39.675Z,90.90
2018-02-03T17:50:07.967Z,90.80
2018-02-03T17:52:36.379Z,91.20
2018-02-03T17:55:03.936Z,91.40
2018-02-03T17:57:37.144Z,91.50
2018-02-03T18:00:04.891Z,91.70
2018-02-03T18:02:32.450Z,92.00
2018-02-03T18:05:00.588Z,92.40
2018-02-03T18:07:28.122Z,93.40
2018-02-03T18:09:56.422Z,93.80
2018-02-03T18:12:24.079Z,93.80
2018-02-03T18:14:51.651Z,93.70
2018-02-03T18:17:19.175Z,94.00
2018-02-03T18:19:46.856Z,94.30
2018-02-03T18:22:16.430Z,94.60
2018-02-03T18:24:44.054Z,94.50
2018-02-03T18:27:11.643Z,94.80
2018-02-03T18:29:39.181Z,94.80
2018-02-03T18:32:06.724Z,94.90
2018-02-03T18:34:34.315Z,94.80
2018-02-03T18:37:01.857Z,95.20
2018-02-03T18:39:29.509Z,95.20
2018-02-03T18:41:57.067Z,95.40
2018-02-03T18:44:24.607Z,95.70
2018-02-03T18:46:52.210Z,95.90
2018-02-03T18:49:19.789Z,95.90
2018-02-03T18:51:47.995Z,95.90
2018-02-03T18:54:17.222Z,96.20
2018-02-03T18:56:44.836Z,96.20
2018-02-03T18:59:12.382Z,96.30
2018-02-03T19:01:39.911Z,96.00
2018-02-03T19:04:07.524Z,96.00
2018-02-03T19:06:35.068Z,96.20
2018-02-03T19:09:02.616Z,95.90
2018-02-03T19:11:30.202Z,96.00
2018-02-03T19:13:57.759Z,96.10
2018-02-03T19:16:25.455Z,96.10
2018-02-03T19:18:53.125Z,96.20
2018-02-03T19:21:20.685Z,96.10
2018-02-03T19:23:48.269Z,96.40
2018-02-03T19:26:16.459Z,96.30
2018-02-03T19:28:44.174Z,96.10
2018-02-03T19:31:11.817Z,96.20
2018-02-03T19:33:39.449Z,96.10
2018-02-03T19:36:07.046Z,96.10
2018-02-03T19:38:34.596Z,95.70
2018-02-03T19:41:03.552Z,95.40
2018-02-03T19:43:31.566Z,95.30
2018-02-03T19:46:02.083Z,95.20
2018-02-03T19:48:29.697Z,95.10
2018-02-03T19:50:57.363Z,95.20
2018-02-03T19:53:27.533Z,95.30
2018-02-03T19:55:55.945Z,95.40
2018-02-03T19:58:25.548Z,95.40
2018-02-03T20:00:53.129Z,95.50
2018-02-03T20:03:20.966Z,95.50
2018-02-03T20:05:49.311Z,95.90
2018-02-03T20:08:16.902Z,95.80
2018-02-03T20:10:44.594Z,95.70
2018-02-03T20:13:12.227Z,95.70
2018-02-03T20:15:55.345Z,95.80
2018-02-03T20:18:25.195Z,96.00
2018-02-03T20:20:53.563Z,95.80
2018-02-03T20:23:21.633Z,95.80
2018-02-03T20:25:49.239Z,96.00
2018-02-03T20:28:16.834Z,96.10
2018-02-03T20:30:47.154Z,96.00
2018-02-03T20:33:17.211Z,95.80
2018-02-03T20:35:44.833Z,95.80
2018-02-03T20:38:14.247Z,95.40
2018-02-03T20:40:42.542Z,95.30
2018-02-03T20:43:10.262Z,95.40
2018-02-03T20:45:37.886Z,95.30
2018-02-03T20:48:05.448Z,95.10
2018-02-03T20:50:33.014Z,95.20
2018-02-03T20:53:00.649Z,94.60
2018-02-03T20:55:28.760Z,94.80
2018-02-03T20:57:56.390Z,94.80
2018-02-03T21:00:24.075Z,94.90
2018-02-03T21:02:51.663Z,95.10
2018-02-03T21:05:19.247Z,95.30
2018-02-03T21:07:48.258Z,95.20
2018-02-03T21:10:16.607Z,95.10
2018-02-03T21:12:44.904Z,94.70
2018-02-03T21:15:12.476Z,94.70
2018-02-03T21:17:40.012Z,95.00
2018-02-03T21:20:07.637Z,95.30
2018-02-03T21:22:35.218Z,95.50
2018-02-03T21:25:02.801Z,95.60
2018-02-03T21:27:30.344Z,95.70
2018-02-03T21:29:58.699Z,95.60
2018-02-03T21:32:26.442Z,95.60
2018-02-03T21:34:54.018Z,95.80
2018-02-03T21:37:21.618Z,95.80
2018-02-03T21:39:49.202Z,95.90
2018-02-03T21:42:16.747Z,96.20
2018-02-03T21:44:44.306Z,96.20
2018-02-03T21:47:11.853Z,96.50
2018-02-03T21:49:40.233Z,96.40
2018-02-03T21:52:08.936Z,96.50
2018-02-03T21:54:36.675Z,96.50
2018-02-03T21:57:05.287Z,96.50
2018-02-03T21:59:32.913Z,96.50
2018-02-03T22:02:00.447Z,96.60
2018-02-03T22:04:27.998Z,96.50
2018-02-03T22:06:55.631Z,96.60
2018-02-03T22:09:23.304Z,96.40
2018-02-03T22:11:50.890Z,96.40
2018-02-03T22:14:18.482Z,96.30
2018-02-03T22:16:46.053Z,96.40
2018-02-03T22:19:25.735Z,96.50
2018-02-03T22:24:26.071Z,96.60
2018-02-03T22:26:53.635Z,96.70
2018-02-03T22:29:21.167Z,96.80
2018-02-03T22:31:49.237Z,96.90
2018-02-03T22:34:17.541Z,97.00
2018-02-03T22:36:45.080Z,97.00
2018-02-03T22:39:14.365Z,96.80
2018-02-03T22:41:41.895Z,96.80
2018-02-03T22:44:09.432Z,96.70
2018-02-03T22:46:37.012Z,96.80
2018-02-03T22:49:04.657Z,97.10
2018-02-03T22:51:32.204Z,96.70
2018-02-03T22:53:59.819Z,96.70
2018-02-03T22:56:27.375Z,96.70
2018-02-03T22:58:54.964Z,96.70
2018-02-03T23:01:22.535Z,96.70
2018-02-03T23:03:50.071Z,96.90
2018-02-03T23:06:18.384Z,97.00
2018-02-03T23:08:46.052Z,97.00
2018-02-03T23:11:19.462Z,97.10
2018-02-03T23:20:37.363Z,97.10
2018-02-03T23:23:04.904Z,97.80
2018-02-03T23:25:32.575Z,98.10
2018-02-03T23:28:00.177Z,98.00
2018-02-03T23:30:27.732Z,98.10
2018-02-03T23:32:55.271Z,98.00
2018-02-03T23:35:22.839Z,98.10
2018-02-03T23:37:50.418Z,97.80
2018-02-03T23:40:17.969Z,98.00
2018-02-03T23:42:46.919Z,97.90
2018-02-03T23:45:25.322Z,97.90
2018-02-03T23:50:34.519Z,98.20
2018-02-03T23:53:02.055Z,98.20
2018-02-03T23:55:29.671Z,98.60
2018-02-03T23:57:57.908Z,98.50
